Terminal Aerodrome Forecast
Issued by NWS

Home | Current Version | Previous Version | Text Only | Print | Product List | Glossary On
Versions: 1 2 3 4 5 6 7 8 9 10 11 12 13 14 15 16 17 18 19 20 21 22 23 24 25 26 27 28
000
FTUS43 KDVN 212340
TAFBRL
TAF
KBRL 212340Z 2200/2224 01010KT P6SM BKN250
     FM220200 04008KT P6SM BKN150
     FM221200 05010KT P6SM VCSH OVC050
     FM221400 06010KT 5SM -FZRA BR OVC015
     FM221700 06010KT 6SM -RA BR OVC020=

USA.gov is the U.S. government's official web portal to all federal, state and local government web resources and services.